Time;durP1;ratioP1;P1;durP2;ratioP2;P2;SDS_P1;SDS_P2;PMS_P1;PMS_P2;Temp;Humidity;BMP_temperature;BMP_pressure;BME280_temperature;BME280_humidity;BME280_pressure;Samples;Min_cycle;Max_cycle;Signal;HPM_P1;HPM_P2
2023/04/04 00:00:14;;;;;;;6.03;2.00;;;4.30;99.90;;;;;;4975608;28;20133;-52
2023/04/04 00:02:40;;;;;;;5.50;2.17;;;4.30;99.90;;;;;;4983018;28;20030;-50
2023/04/04 00:05:07;;;;;;;9.13;2.67;;;4.60;99.90;;;;;;4973507;28;20108;-50
2023/04/04 00:07:33;;;;;;;4.22;1.90;;;4.20;99.90;;;;;;4974160;28;20079;-52
2023/04/04 00:09:58;;;;;;;5.50;2.30;;;4.20;99.90;;;;;;4978700;28;20518;-51
2023/04/04 00:12:24;;;;;;;6.80;2.13;;;4.20;99.90;;;;;;4973883;28;20038;-53
2023/04/04 00:14:50;;;;;;;6.13;2.30;;;4.20;99.90;;;;;;4974783;28;20051;-53
2023/04/04 00:17:16;;;;;;;6.60;2.10;;;4.10;99.90;;;;;;4983560;28;20061;-51
2023/04/04 00:19:42;;;;;;;6.80;2.28;;;4.10;99.90;;;;;;4974834;28;20044;-53
2023/04/04 00:22:08;;;;;;;5.57;2.28;;;4.10;99.90;;;;;;4982585;28;20030;-53
2023/04/04 00:24:34;;;;;;;4.93;2.30;;;4.10;99.90;;;;;;4977286;28;20046;-50
2023/04/04 00:27:00;;;;;;;6.40;2.13;;;4.20;99.90;;;;;;4983519;28;20039;-53
2023/04/04 00:29:26;;;;;;;4.57;2.13;;;3.90;99.90;;;;;;4973656;28;20061;-49
2023/04/04 00:31:52;;;;;;;6.40;2.63;;;3.90;99.90;;;;;;4982525;28;20046;-53
2023/04/04 00:34:17;;;;;;;5.97;2.30;;;3.80;99.90;;;;;;4974310;28;20121;-50
2023/04/04 00:36:43;;;;;;;8.82;2.58;;;3.80;99.90;;;;;;4983328;28;20034;-51
2023/04/04 00:39:09;;;;;;;7.22;2.65;;;3.80;99.90;;;;;;4976755;28;20053;-53
2023/04/04 00:41:35;;;;;;;5.68;2.20;;;3.80;99.90;;;;;;4983157;28;20045;-52
2023/04/04 00:44:00;;;;;;;6.82;2.35;;;3.70;99.90;;;;;;4973033;28;20053;-51
2023/04/04 00:46:28;;;;;;;5.95;2.33;;;3.70;99.90;;;;;;4982034;28;20034;-50
2023/04/04 00:48:55;;;;;;;7.97;2.28;;;3.70;99.90;;;;;;4973441;28;20121;-48
2023/04/04 00:51:21;;;;;;;8.18;2.63;;;3.60;99.90;;;;;;4972792;28;20043;-53
2023/04/04 00:53:47;;;;;;;4.88;2.58;;;3.60;99.90;;;;;;4977516;28;20093;-50
2023/04/04 00:56:14;;;;;;;7.50;2.45;;;5.00;99.90;;;;;;4974356;28;20122;-53
2023/04/04 00:58:41;;;;;;;7.50;2.50;;;3.60;99.90;;;;;;4976948;28;20058;-50
2023/04/04 01:01:07;;;;;;;6.68;2.53;;;3.60;99.90;;;;;;4974348;28;20077;-52
2023/04/04 01:03:34;;;;;;;4.88;2.30;;;3.80;99.90;;;;;;4972678;28;20395;-51
2023/04/04 01:06:00;;;;;;;6.00;2.50;;;3.50;99.90;;;;;;4962793;28;20049;-54
2023/04/04 01:08:28;;;;;;;7.45;2.80;;;3.80;99.90;;;;;;4975786;28;20034;-49
2023/04/04 01:10:54;;;;;;;7.88;2.97;;;3.50;99.90;;;;;;4972393;28;20043;-51
2023/04/04 01:13:20;;;;;;;9.73;3.00;;;3.40;99.90;;;;;;4974073;28;20044;-53
2023/04/04 01:15:47;;;;;;;6.03;2.70;;;3.40;99.90;;;;;;4971590;28;20106;-51
2023/04/04 01:18:17;;;;;;;5.63;2.63;;;3.70;99.90;;;;;;4974959;28;20053;-49
2023/04/04 01:21:02;;;;;;;9.50;3.20;;;3.30;99.90;;;;;;4974360;28;20046;-51
2023/04/04 01:23:50;;;;;;;6.13;2.70;;;3.30;99.90;;;;;;4974835;28;20439;-51
2023/04/04 01:26:16;;;;;;;8.30;3.28;;;3.20;99.90;;;;;;4973862;28;20054;-52
2023/04/04 01:28:42;;;;;;;5.88;2.53;;;3.20;99.90;;;;;;4972717;28;20041;-52
2023/04/04 01:31:11;;;;;;;8.02;3.22;;;3.20;99.90;;;;;;4975137;28;20046;-52
2023/04/04 01:33:45;;;;;;;7.10;3.20;;;3.10;99.90;;;;;;4971755;28;20035;-50
2023/04/04 01:36:26;;;;;;;7.93;3.13;;;3.10;99.90;;;;;;4972976;28;20049;-51
2023/04/04 01:39:01;;;;;;;6.82;2.85;;;3.10;99.90;;;;;;4981529;28;20046;-49
2023/04/04 01:41:32;;;;;;;11.55;3.38;;;3.00;99.90;;;;;;4973122;28;20145;-50
2023/04/04 01:43:58;;;;;;;6.80;3.05;;;3.00;99.90;;;;;;4966856;28;20068;-50
2023/04/04 01:46:24;;;;;;;6.82;2.65;;;2.90;99.90;;;;;;4972887;28;20038;-52
2023/04/04 01:48:50;;;;;;;7.15;2.97;;;3.10;99.90;;;;;;4975430;28;20117;-52
2023/04/04 01:51:16;;;;;;;7.25;2.97;;;2.80;99.90;;;;;;4981930;28;20058;-53
2023/04/04 01:53:41;;;;;;;9.82;3.47;;;2.80;99.90;;;;;;4973301;28;20031;-50
2023/04/04 01:56:07;;;;;;;9.07;3.30;;;2.80;99.90;;;;;;4971418;28;20045;-52
2023/04/04 01:58:33;;;;;;;8.77;3.13;;;2.80;99.90;;;;;;4973149;28;20130;-50
2023/04/04 02:00:58;;;;;;;7.82;2.85;;;2.80;99.90;;;;;;4972425;28;20041;-50
2023/04/04 02:03:24;;;;;;;7.90;3.22;;;2.70;99.90;;;;;;4976820;28;20042;-49
2023/04/04 02:05:50;;;;;;;8.35;2.90;;;2.70;99.90;;;;;;4981945;28;20098;-52
2023/04/04 02:08:15;;;;;;;8.25;3.25;;;2.70;99.90;;;;;;4973230;28;20134;-52
2023/04/04 02:10:41;;;;;;;7.50;3.10;;;2.70;99.90;;;;;;4971282;28;20070;-52
2023/04/04 02:13:07;;;;;;;10.98;3.25;;;2.60;99.90;;;;;;4972406;28;20085;-51
2023/04/04 02:15:34;;;;;;;8.63;3.03;;;2.60;99.90;;;;;;4976602;28;20050;-50
2023/04/04 02:18:00;;;;;;;8.32;3.50;;;2.60;99.90;;;;;;4958910;28;20070;-49
2023/04/04 02:20:26;;;;;;;8.05;3.30;;;2.60;99.90;;;;;;4982384;28;20051;-53
2023/04/04 02:22:52;;;;;;;7.38;3.25;;;2.50;99.90;;;;;;4958969;28;20038;-52
2023/04/04 02:25:19;;;;;;;7.25;3.00;;;2.50;99.90;;;;;;4974730;28;20583;-53
2023/04/04 02:27:45;;;;;;;8.68;3.63;;;2.50;99.90;;;;;;4973068;28;20038;-49
2023/04/04 02:30:11;;;;;;;8.05;3.47;;;2.40;99.90;;;;;;4974643;28;20453;-53
2023/04/04 02:32:37;;;;;;;10.68;3.67;;;2.40;99.90;;;;;;4980234;28;20108;-50
2023/04/04 02:35:03;;;;;;;9.43;3.67;;;2.40;99.90;;;;;;4984374;28;20113;-53
2023/04/04 02:37:29;;;;;;;7.15;3.50;;;2.40;99.90;;;;;;4978135;28;20050;-53
2023/04/04 02:39:55;;;;;;;6.85;3.15;;;2.30;99.90;;;;;;4993157;28;20046;-52
2023/04/04 02:42:20;;;;;;;10.70;3.92;;;2.30;99.90;;;;;;4994498;28;20042;-51
2023/04/04 02:44:46;;;;;;;7.65;3.20;;;2.30;99.90;;;;;;4987370;28;20070;-53
2023/04/04 02:47:12;;;;;;;8.88;3.40;;;2.30;99.90;;;;;;4980355;28;20088;-47
2023/04/04 02:49:38;;;;;;;7.78;3.33;;;2.20;99.90;;;;;;4987015;28;20043;-53
2023/04/04 02:52:03;;;;;;;9.05;3.25;;;2.20;99.90;;;;;;4980776;28;20426;-48
2023/04/04 02:54:29;;;;;;;6.20;3.20;;;2.20;99.90;;;;;;4992462;28;20046;-52
2023/04/04 02:56:55;;;;;;;6.45;3.30;;;2.70;99.90;;;;;;4991920;28;20045;-51
2023/04/04 02:59:21;;;;;;;6.63;3.75;;;3.10;99.90;;;;;;4976438;28;20037;-52
2023/04/04 03:01:47;;;;;;;10.05;3.78;;;2.10;99.90;;;;;;4975928;28;20034;-52
2023/04/04 03:04:12;;;;;;;6.15;3.22;;;2.40;99.90;;;;;;4976311;28;20039;-49
2023/04/04 03:06:40;;;;;;;7.47;4.07;;;3.40;99.90;;;;;;4974068;28;20475;-53
2023/04/04 03:09:06;;;;;;;8.80;3.90;;;2.30;99.90;;;;;;4977454;28;20049;-52
2023/04/04 03:11:31;;;;;;;7.82;3.42;;;2.00;99.90;;;;;;4979118;28;20049;-51
2023/04/04 03:13:57;;;;;;;10.88;3.67;;;2.00;99.90;;;;;;4973882;28;20482;-50
2023/04/04 03:16:24;;;;;;;9.40;3.63;;;2.00;99.90;;;;;;4982380;28;20224;-52
2023/04/04 03:18:50;;;;;;;7.72;3.50;;;2.00;99.90;;;;;;4992579;28;20038;-53
2023/04/04 03:21:16;;;;;;;9.88;3.25;;;1.90;99.90;;;;;;4993521;28;20960;-48
2023/04/04 03:23:41;;;;;;;10.70;3.50;;;1.90;99.90;;;;;;4985091;28;20046;-49
2023/04/04 03:26:08;;;;;;;7.55;3.20;;;1.80;99.90;;;;;;4975614;28;20047;-49
2023/04/04 03:28:34;;;;;;;8.80;3.25;;;1.90;99.90;;;;;;4974003;28;20065;-49
2023/04/04 03:31:06;;;;;;;9.15;3.45;;;1.80;99.90;;;;;;4978040;28;21055;-50
2023/04/04 03:33:35;;;;;;;10.57;4.10;;;1.70;99.90;;;;;;4974129;28;20561;-52
2023/04/04 03:36:01;;;;;;;11.60;4.13;;;1.70;99.90;;;;;;4992238;28;20140;-52
2023/04/04 03:38:27;;;;;;;11.00;3.90;;;1.70;99.90;;;;;;4977396;28;20723;-52
2023/04/04 03:41:02;;;;;;;10.48;3.83;;;1.70;99.90;;;;;;4977701;28;20084;-48
2023/04/04 03:43:29;;;;;;;12.18;4.05;;;1.70;99.90;;;;;;4983450;28;20046;-48
2023/04/04 03:45:59;;;;;;;7.93;3.60;;;1.60;99.90;;;;;;4975198;28;20538;-53
2023/04/04 03:48:26;;;;;;;8.35;3.47;;;1.60;99.90;;;;;;4981887;28;20179;-51
2023/04/04 03:50:51;;;;;;;9.68;3.63;;;1.60;99.90;;;;;;4975780;28;20046;-51
2023/04/04 03:53:17;;;;;;;8.60;3.80;;;1.60;99.90;;;;;;4981821;28;20109;-53
2023/04/04 03:55:43;;;;;;;7.85;3.10;;;1.60;99.90;;;;;;4975094;28;20055;-53
2023/04/04 03:58:08;;;;;;;9.15;3.65;;;1.60;99.90;;;;;;4980705;28;20479;-52
2023/04/04 04:00:34;;;;;;;7.63;3.30;;;1.50;99.90;;;;;;4973367;28;20486;-49
2023/04/04 04:03:00;;;;;;;8.73;3.50;;;1.50;99.90;;;;;;4975178;28;20034;-52
2023/04/04 04:05:25;;;;;;;8.52;3.75;;;1.40;99.90;;;;;;4973133;28;20043;-48
2023/04/04 04:07:51;;;;;;;5.35;3.03;;;1.40;99.90;;;;;;4973817;28;20442;-50
2023/04/04 04:10:17;;;;;;;9.95;3.90;;;1.40;99.90;;;;;;4992155;28;20474;-52
2023/04/04 04:12:43;;;;;;;8.55;3.70;;;1.40;99.90;;;;;;4992464;28;20034;-52
2023/04/04 04:15:09;;;;;;;10.05;3.95;;;1.40;99.90;;;;;;4974161;28;20047;-50
2023/04/04 04:17:39;;;;;;;8.52;3.50;;;1.30;99.90;;;;;;4982211;28;20112;-51
2023/04/04 04:20:07;;;;;;;7.28;3.35;;;1.30;99.90;;;;;;4974003;28;20039;-54
2023/04/04 04:22:33;;;;;;;8.45;4.22;;;1.30;99.90;;;;;;4977406;28;20052;-50
2023/04/04 04:24:59;;;;;;;6.90;3.72;;;1.20;99.90;;;;;;4976086;28;20560;-51
2023/04/04 04:27:24;;;;;;;9.85;3.55;;;1.20;99.90;;;;;;4978634;28;20050;-50
2023/04/04 04:29:50;;;;;;;6.72;3.65;;;1.20;99.90;;;;;;4974502;28;20042;-50
2023/04/04 04:32:16;;;;;;;8.52;3.50;;;1.20;99.90;;;;;;4973765;28;20565;-53
2023/04/04 04:34:42;;;;;;;7.53;3.45;;;1.10;99.90;;;;;;4973896;28;20100;-51
2023/04/04 04:37:08;;;;;;;7.38;3.75;;;1.10;99.90;;;;;;4973049;28;20145;-49
2023/04/04 04:39:35;;;;;;;7.55;3.53;;;1.00;99.90;;;;;;4983829;28;20514;-49
2023/04/04 04:42:01;;;;;;;7.55;3.63;;;1.00;99.90;;;;;;4974093;28;20486;-51
2023/04/04 04:44:26;;;;;;;8.82;3.85;;;1.00;99.90;;;;;;4973290;28;20042;-54
2023/04/04 04:46:55;;;;;;;7.47;3.25;;;0.90;99.90;;;;;;4973788;28;20118;-53
2023/04/04 04:49:21;;;;;;;8.82;3.58;;;0.90;99.90;;;;;;4983922;28;20427;-54
2023/04/04 04:51:48;;;;;;;6.53;3.22;;;0.90;99.90;;;;;;4979649;28;20035;-51
2023/04/04 04:54:13;;;;;;;6.97;3.40;;;0.90;99.90;;;;;;4968991;28;20395;-49
2023/04/04 04:56:39;;;;;;;10.02;3.42;;;0.90;99.90;;;;;;4972710;28;20037;-48
2023/04/04 04:59:06;;;;;;;8.98;3.85;;;0.80;99.90;;;;;;4986013;28;20046;-52
2023/04/04 05:01:34;;;;;;;8.70;3.60;;;0.80;99.90;;;;;;4973067;28;20058;-52
2023/04/04 05:04:00;;;;;;;7.70;3.30;;;0.80;99.90;;;;;;4973580;28;20035;-52
2023/04/04 05:06:26;;;;;;;9.65;3.65;;;0.70;99.90;;;;;;4956872;28;20586;-49
2023/04/04 05:08:51;;;;;;;8.48;3.38;;;0.80;99.90;;;;;;4975517;28;20134;-52
2023/04/04 05:11:17;;;;;;;9.20;3.25;;;0.70;99.90;;;;;;4973691;28;20039;-52
2023/04/04 05:13:43;;;;;;;8.95;3.47;;;0.70;99.90;;;;;;4973749;28;20042;-54
2023/04/04 05:16:09;;;;;;;8.13;3.58;;;0.70;99.90;;;;;;4976103;28;20402;-48
2023/04/04 05:18:35;;;;;;;7.13;3.63;;;0.70;99.90;;;;;;4983250;28;20039;-54
2023/04/04 05:21:01;;;;;;;9.77;3.90;;;0.70;99.90;;;;;;4980470;28;20616;-53
2023/04/04 05:23:27;;;;;;;7.57;3.08;;;0.70;99.90;;;;;;4977856;28;20048;-51
2023/04/04 05:25:52;;;;;;;9.85;3.83;;;0.70;99.90;;;;;;4973540;28;20105;-48
2023/04/04 05:28:19;;;;;;;11.70;3.75;;;0.70;99.90;;;;;;4972903;28;20146;-52
2023/04/04 05:30:46;;;;;;;8.63;3.53;;;0.70;99.90;;;;;;4972691;28;20069;-50
2023/04/04 05:33:12;;;;;;;10.07;3.53;;;0.70;99.90;;;;;;4972792;28;20042;-53
2023/04/04 05:35:37;;;;;;;10.10;3.35;;;0.70;99.90;;;;;;4978535;28;20581;-51
2023/04/04 05:38:03;;;;;;;8.50;4.28;;;0.70;99.90;;;;;;4954461;28;20133;-53
2023/04/04 05:40:29;;;;;;;8.77;3.58;;;0.70;99.90;;;;;;4974960;28;20129;-47
2023/04/04 05:42:56;;;;;;;10.43;4.05;;;0.70;99.90;;;;;;4974731;28;20031;-53
2023/04/04 05:45:22;;;;;;;9.00;4.32;;;0.70;99.90;;;;;;4973130;28;20037;-52
2023/04/04 05:47:47;;;;;;;9.38;3.95;;;0.80;99.90;;;;;;4971785;28;20046;-49
2023/04/04 05:50:13;;;;;;;8.23;4.13;;;0.80;99.90;;;;;;4973034;28;20047;-53
2023/04/04 05:52:40;;;;;;;8.43;4.20;;;0.80;99.90;;;;;;4984397;28;20117;-50
2023/04/04 05:55:06;;;;;;;8.13;4.07;;;0.80;99.90;;;;;;4974732;28;20425;-52
2023/04/04 05:57:32;;;;;;;9.43;4.47;;;0.80;99.90;;;;;;4972111;28;20039;-52
2023/04/04 05:59:58;;;;;;;11.80;5.03;;;0.80;99.90;;;;;;4976221;28;20097;-49
2023/04/04 06:02:24;;;;;;;9.93;4.43;;;0.90;99.90;;;;;;4972198;28;20035;-52
2023/04/04 06:04:49;;;;;;;8.23;4.25;;;0.90;99.90;;;;;;4975421;28;20332;-52
2023/04/04 06:07:15;;;;;;;8.23;3.53;;;1.00;99.90;;;;;;4975474;28;20041;-49
2023/04/04 06:09:41;;;;;;;9.70;4.20;;;1.00;99.90;;;;;;4981491;28;20030;-48
2023/04/04 06:12:10;;;;;;;8.18;3.88;;;1.10;99.90;;;;;;4986629;28;20109;-53
2023/04/04 06:14:36;;;;;;;8.63;3.92;;;1.10;99.90;;;;;;4980686;28;20043;-52
2023/04/04 06:17:02;;;;;;;11.65;4.07;;;1.20;99.90;;;;;;4969702;28;20129;-49
2023/04/04 06:19:28;;;;;;;9.70;4.20;;;1.20;99.90;;;;;;4981088;28;20047;-53
2023/04/04 06:21:54;;;;;;;10.25;3.95;;;1.30;99.90;;;;;;4987484;28;20483;-52
2023/04/04 06:24:19;;;;;;;8.85;3.50;;;1.30;99.90;;;;;;4980500;28;20039;-49
2023/04/04 06:26:50;;;;;;;10.70;4.13;;;1.40;99.90;;;;;;4987183;28;20097;-51
2023/04/04 06:29:18;;;;;;;11.20;3.55;;;1.40;99.90;;;;;;4993773;28;20046;-53
2023/04/04 06:31:44;;;;;;;8.60;3.70;;;1.50;99.90;;;;;;4991995;28;20081;-50
2023/04/04 06:34:10;;;;;;;10.00;3.95;;;1.60;99.90;;;;;;4982101;28;20090;-52
2023/04/04 06:36:36;;;;;;;10.57;3.90;;;1.60;99.90;;;;;;4972454;28;20050;-50
2023/04/04 06:39:01;;;;;;;11.65;3.80;;;1.60;99.90;;;;;;4969918;28;20039;-52
2023/04/04 06:41:27;;;;;;;8.82;3.58;;;1.70;99.90;;;;;;4968484;28;20050;-52
2023/04/04 06:43:52;;;;;;;8.13;4.38;;;1.80;99.90;;;;;;4972411;28;20039;-54
2023/04/04 06:46:18;;;;;;;10.65;3.83;;;1.80;99.90;;;;;;4971219;28;20031;-47
2023/04/04 06:48:44;;;;;;;10.90;3.55;;;1.80;99.90;;;;;;4969923;28;20034;-52
2023/04/04 06:51:10;;;;;;;9.10;3.80;;;1.90;99.90;;;;;;4970061;28;20042;-54
2023/04/04 06:53:36;;;;;;;9.63;3.90;;;2.00;99.90;;;;;;4969049;28;20062;-54
2023/04/04 06:56:03;;;;;;;8.07;3.50;;;2.50;99.90;;;;;;4968708;28;20090;-50
2023/04/04 06:58:29;;;;;;;9.27;3.97;;;2.10;99.90;;;;;;4970721;28;20139;-53
2023/04/04 07:00:58;;;;;;;8.13;3.50;;;2.20;99.90;;;;;;4970598;28;20532;-52
2023/04/04 07:03:27;;;;;;;8.85;3.70;;;2.30;99.90;;;;;;4969337;28;20038;-53
2023/04/04 07:05:52;;;;;;;6.72;3.03;;;2.40;99.90;;;;;;4969051;28;20078;-49
2023/04/04 07:08:19;;;;;;;7.38;3.35;;;2.50;99.90;;;;;;4968777;28;20077;-52
2023/04/04 07:10:44;;;;;;;8.27;2.90;;;2.50;99.90;;;;;;4969060;28;20130;-48
2023/04/04 07:13:10;;;;;;;9.95;3.40;;;2.60;99.90;;;;;;4969669;28;20129;-52
2023/04/04 07:15:36;;;;;;;8.15;3.17;;;2.70;99.90;;;;;;4966788;28;20039;-52
2023/04/04 07:18:02;;;;;;;7.43;2.90;;;3.30;99.90;;;;;;4968487;28;20057;-51
2023/04/04 07:20:27;;;;;;;8.73;3.05;;;2.80;99.90;;;;;;4969271;28;20406;-52
2023/04/04 07:22:53;;;;;;;7.03;3.05;;;2.90;99.90;;;;;;4969924;28;20126;-51
2023/04/04 07:25:19;;;;;;;7.55;3.33;;;3.00;99.90;;;;;;4969415;28;20053;-53
2023/04/04 07:27:45;;;;;;;5.68;2.85;;;3.10;99.90;;;;;;4968051;28;20035;-50
2023/04/04 07:30:12;;;;;;;6.53;3.17;;;3.20;99.90;;;;;;4969033;28;20102;-50
2023/04/04 07:32:38;;;;;;;8.18;3.20;;;3.30;99.90;;;;;;4970549;28;20045;-50
2023/04/04 07:35:05;;;;;;;7.93;3.20;;;3.30;99.90;;;;;;4969314;28;20034;-49
2023/04/04 07:37:32;;;;;;;8.45;2.90;;;3.40;99.90;;;;;;4968375;28;20039;-55
2023/04/04 07:39:58;;;;;;;10.55;3.10;;;3.50;99.90;;;;;;4967596;28;20082;-50
2023/04/04 07:42:24;;;;;;;9.60;2.95;;;3.60;99.90;;;;;;4969913;28;20035;-51
2023/04/04 07:44:50;;;;;;;7.57;3.15;;;3.70;99.90;;;;;;4968716;28;20094;-52
2023/04/04 07:47:17;;;;;;;7.13;2.95;;;3.90;99.90;;;;;;4967683;28;20043;-51
2023/04/04 07:49:42;;;;;;;7.53;3.10;;;3.90;99.90;;;;;;4969395;28;20038;-51
2023/04/04 07:52:08;;;;;;;8.88;3.25;;;4.00;99.90;;;;;;4967808;28;20049;-54
2023/04/04 07:54:35;;;;;;;6.57;2.50;;;4.20;99.90;;;;;;4969413;28;20852;-50
2023/04/04 07:57:04;;;;;;;8.73;2.72;;;4.30;99.90;;;;;;4966400;28;20398;-51
2023/04/04 07:59:33;;;;;;;8.23;2.80;;;4.40;99.90;;;;;;4968564;28;20030;-53
2023/04/04 08:01:58;;;;;;;6.32;2.67;;;4.50;99.90;;;;;;4967051;28;20050;-48
2023/04/04 08:04:24;;;;;;;6.60;2.85;;;4.90;99.90;;;;;;4953597;28;20026;-50
2023/04/04 08:06:50;;;;;;;5.95;2.60;;;4.70;99.90;;;;;;4967902;28;20046;-47
2023/04/04 08:09:16;;;;;;;7.68;2.30;;;4.70;99.90;;;;;;4967325;28;20042;-54
2023/04/04 08:11:42;;;;;;;7.43;2.58;;;4.80;99.90;;;;;;4966789;28;20389;-51
2023/04/04 08:14:10;;;;;;;8.00;2.40;;;4.90;99.90;;;;;;4968605;28;20707;-52
2023/04/04 08:16:37;;;;;;;5.75;2.20;;;4.90;99.90;;;;;;4951818;28;20472;-54
2023/04/04 08:19:03;;;;;;;5.53;2.20;;;5.00;99.90;;;;;;4968516;28;20133;-51
2023/04/04 08:21:29;;;;;;;7.25;2.28;;;5.20;99.90;;;;;;4968284;28;20057;-53
2023/04/04 08:23:55;;;;;;;8.25;2.10;;;5.30;99.90;;;;;;4969259;28;20039;-50
2023/04/04 08:26:20;;;;;;;4.82;1.80;;;5.50;99.90;;;;;;4967418;28;20672;-49
2023/04/04 08:28:47;;;;;;;4.05;2.00;;;5.60;99.90;;;;;;4966793;28;20046;-48
2023/04/04 08:31:12;;;;;;;4.22;1.80;;;5.70;99.90;;;;;;4968373;28;20042;-53
2023/04/04 08:33:38;;;;;;;5.10;1.95;;;5.80;99.90;;;;;;4967449;28;20046;-53
2023/04/04 08:36:04;;;;;;;6.35;2.25;;;5.80;99.90;;;;;;4954044;28;20034;-51
2023/04/04 08:38:30;;;;;;;5.55;2.33;;;5.90;99.90;;;;;;4967384;28;20078;-54
2023/04/04 08:40:55;;;;;;;5.18;2.25;;;6.00;99.90;;;;;;4967427;28;20050;-52
2023/04/04 08:43:23;;;;;;;6.38;2.55;;;6.00;99.90;;;;;;4967596;28;20050;-52
2023/04/04 08:45:50;;;;;;;7.60;2.58;;;6.00;99.90;;;;;;4967099;28;20026;-51
2023/04/04 08:48:17;;;;;;;6.70;2.00;;;6.10;99.90;;;;;;4966820;28;20038;-51
2023/04/04 08:50:43;;;;;;;5.53;1.92;;;6.20;99.90;;;;;;4965295;28;20097;-51
2023/04/04 08:53:10;;;;;;;6.97;2.33;;;6.20;99.90;;;;;;4968177;28;20038;-52
2023/04/04 08:55:39;;;;;;;7.28;2.10;;;6.40;99.90;;;;;;4967673;28;20816;-53
2023/04/04 08:58:05;;;;;;;5.55;2.28;;;6.30;99.90;;;;;;4966506;28;20042;-52
2023/04/04 09:00:31;;;;;;;8.25;2.30;;;6.40;99.90;;;;;;4967516;28;20121;-50
2023/04/04 09:03:18;;;;;;;7.50;2.30;;;6.50;99.90;;;;;;4967167;28;20469;-53
2023/04/04 09:05:44;;;;;;;6.50;2.10;;;6.60;99.90;;;;;;4965831;28;20043;-50
2023/04/04 09:08:11;;;;;;;4.93;2.20;;;6.70;99.90;;;;;;4966692;28;20027;-50
2023/04/04 09:10:38;;;;;;;8.23;2.30;;;6.80;99.90;;;;;;4966593;28;20054;-51
2023/04/04 09:13:04;;;;;;;5.15;2.05;;;7.00;99.90;;;;;;4967213;28;20062;-52
2023/04/04 09:15:31;;;;;;;4.72;1.67;;;7.00;99.90;;;;;;4966768;28;20061;-51
2023/04/04 09:17:57;;;;;;;7.50;1.92;;;7.10;99.90;;;;;;4965626;28;20042;-54
2023/04/04 09:20:34;;;;;;;5.53;2.60;;;7.20;99.90;;;;;;4967946;28;20072;-52
2023/04/04 09:23:00;;;;;;;10.68;2.08;;;7.30;99.90;;;;;;4969052;28;20065;-50
2023/04/04 09:25:26;;;;;;;5.70;1.92;;;7.30;99.90;;;;;;4967989;28;20939;-50
2023/04/04 09:27:52;;;;;;;5.85;1.77;;;7.30;99.90;;;;;;4966299;28;20043;-52
2023/04/04 09:30:19;;;;;;;4.68;1.80;;;7.40;99.90;;;;;;4951010;28;20244;-53
2023/04/04 09:32:45;;;;;;;5.50;1.70;;;7.50;99.90;;;;;;4966348;28;20581;-52
2023/04/04 09:35:14;;;;;;;6.57;2.10;;;7.60;99.90;;;;;;4966531;28;20073;-52
2023/04/04 09:37:41;;;;;;;6.38;1.60;;;7.50;99.90;;;;;;4968598;28;20054;-52
2023/04/04 09:40:09;;;;;;;6.00;1.70;;;7.90;99.90;;;;;;4965339;28;20051;-48
2023/04/04 09:42:35;;;;;;;4.97;1.50;;;7.90;99.90;;;;;;4968516;28;20042;-51
2023/04/04 09:45:01;;;;;;;6.13;2.05;;;8.00;99.90;;;;;;4970756;28;20081;-50
2023/04/04 09:47:31;;;;;;;5.07;1.75;;;8.10;99.90;;;;;;4981235;28;20051;-53
2023/04/04 09:49:58;;;;;;;7.13;1.88;;;8.20;99.90;;;;;;4977854;28;20438;-52
2023/04/04 09:52:24;;;;;;;6.22;1.83;;;8.40;99.90;;;;;;4971974;28;20042;-55
2023/04/04 09:55:01;;;;;;;4.75;1.58;;;8.50;99.90;;;;;;4972082;28;20054;-51
2023/04/04 09:57:34;;;;;;;5.65;2.20;;;8.50;99.90;;;;;;4972216;28;20509;-53
2023/04/04 10:00:03;;;;;;;5.40;1.67;;;8.40;99.90;;;;;;4972574;28;20495;-53
2023/04/04 10:02:29;;;;;;;5.93;2.00;;;8.40;99.90;;;;;;4979456;28;20039;-53
2023/04/04 10:04:56;;;;;;;5.78;2.25;;;8.40;99.90;;;;;;4972789;28;20050;-51
2023/04/04 10:07:29;;;;;;;5.75;2.53;;;8.40;99.90;;;;;;4972454;28;20122;-52
2023/04/04 10:09:56;;;;;;;5.80;2.28;;;8.40;99.90;;;;;;4972345;28;20045;-51
2023/04/04 10:12:24;;;;;;;7.07;2.25;;;8.50;99.90;;;;;;4972497;28;20422;-53
2023/04/04 10:14:57;;;;;;;6.43;2.28;;;8.40;99.90;;;;;;4972255;28;20125;-53
2023/04/04 10:17:24;;;;;;;7.22;2.22;;;8.50;99.90;;;;;;4976115;28;20503;-54
2023/04/04 10:19:52;;;;;;;5.95;1.90;;;8.60;99.90;;;;;;4978554;28;20057;-52
2023/04/04 10:22:19;;;;;;;9.10;2.40;;;8.80;99.90;;;;;;4974303;28;20045;-53
2023/04/04 10:24:45;;;;;;;5.80;2.63;;;8.80;99.90;;;;;;4976394;28;20077;-48
2023/04/04 10:27:11;;;;;;;4.60;2.22;;;8.70;99.90;;;;;;4978605;28;20455;-52
2023/04/04 10:29:37;;;;;;;7.60;2.60;;;8.80;99.90;;;;;;4977323;28;20034;-54
2023/04/04 10:32:10;;;;;;;5.32;2.17;;;8.90;99.90;;;;;;4974875;28;20390;-53
2023/04/04 10:34:48;;;;;;;9.15;2.25;;;9.10;99.90;;;;;;4973898;28;20125;-54
2023/04/04 10:37:27;;;;;;;6.50;2.13;;;9.10;99.90;;;;;;4976827;28;20058;-54
2023/04/04 10:40:09;;;;;;;4.45;1.90;;;9.30;99.90;;;;;;4973333;28;20038;-54
2023/04/04 10:42:40;;;;;;;5.45;2.10;;;9.40;99.90;;;;;;4975155;28;20482;-50
2023/04/04 10:45:11;;;;;;;6.05;2.03;;;9.40;99.90;;;;;;4974625;28;20050;-52
2023/04/04 10:47:38;;;;;;;6.10;2.78;;;9.40;99.90;;;;;;4977916;28;20038;-52
2023/04/04 10:50:09;;;;;;;5.90;2.40;;;9.40;99.90;;;;;;4977587;28;20506;-51
2023/04/04 10:52:41;;;;;;;5.32;2.30;;;9.40;99.90;;;;;;4985068;28;20042;-52
2023/04/04 10:55:09;;;;;;;6.55;2.65;;;9.50;99.90;;;;;;4975297;28;20050;-55
2023/04/04 10:57:39;;;;;;;6.28;2.17;;;9.70;99.90;;;;;;4979252;28;20038;-55
2023/04/04 11:00:08;;;;;;;5.80;2.10;;;9.80;99.90;;;;;;4983178;28;20043;-55
2023/04/04 11:02:44;;;;;;;6.28;2.50;;;9.90;99.90;;;;;;4982983;28;20038;-53
2023/04/04 11:05:29;;;;;;;6.18;2.25;;;10.00;99.90;;;;;;4979257;28;20589;-51
2023/04/04 11:08:03;;;;;;;4.80;1.98;;;10.10;99.90;;;;;;4980893;28;20030;-53
2023/04/04 11:10:30;;;;;;;6.68;2.60;;;10.30;99.90;;;;;;4978741;28;20054;-54
2023/04/04 11:13:03;;;;;;;5.10;2.05;;;10.50;99.90;;;;;;4979305;28;20205;-53
2023/04/04 11:15:44;;;;;;;4.93;2.17;;;10.60;99.90;;;;;;4971525;28;20505;-54
2023/04/04 11:18:12;;;;;;;5.13;1.80;;;10.70;99.00;;;;;;4971944;28;20406;-51
2023/04/04 11:20:44;;;;;;;5.15;2.15;;;10.80;99.90;;;;;;4973879;28;20082;-53
2023/04/04 11:23:19;;;;;;;5.55;2.00;;;10.90;99.80;;;;;;4972444;28;20034;-50
2023/04/04 11:25:55;;;;;;;5.35;2.20;;;10.90;99.70;;;;;;4971721;28;23502;-52
2023/04/04 11:28:43;;;;;;;5.95;2.20;;;11.00;99.50;;;;;;4979636;28;20034;-53
2023/04/04 11:31:19;;;;;;;5.65;2.25;;;11.10;98.90;;;;;;4971039;28;20038;-53
2023/04/04 11:34:07;;;;;;;4.22;1.95;;;11.30;99.10;;;;;;4970952;28;20027;-55
2023/04/04 11:36:35;;;;;;;3.80;1.65;;;11.40;98.70;;;;;;4969461;28;20542;-54
2023/04/04 11:39:19;;;;;;;4.50;2.13;;;11.50;98.90;;;;;;4971225;28;20054;-54
2023/04/04 11:41:54;;;;;;;5.20;2.08;;;11.60;98.80;;;;;;4971986;28;20058;-54
2023/04/04 11:44:21;;;;;;;5.78;1.95;;;11.70;99.00;;;;;;4969329;28;20779;-53
2023/04/04 11:46:48;;;;;;;6.15;2.20;;;11.70;98.60;;;;;;4958134;28;20038;-52
2023/04/04 11:49:14;;;;;;;4.13;2.22;;;11.80;98.30;;;;;;4977282;28;20049;-54
2023/04/04 11:51:41;;;;;;;5.47;2.00;;;11.90;98.20;;;;;;4972471;28;20031;-54
2023/04/04 11:54:14;;;;;;;5.82;2.20;;;11.90;98.30;;;;;;4973235;28;20798;-53
2023/04/04 11:56:44;;;;;;;6.80;2.47;;;12.00;98.20;;;;;;4981397;28;20047;-53
2023/04/04 11:59:11;;;;;;;4.60;2.15;;;12.10;98.30;;;;;;4975311;28;20082;-52
2023/04/04 12:01:40;;;;;;;5.82;2.63;;;12.20;98.10;;;;;;4982088;28;20042;-53
2023/04/04 12:04:05;;;;;;;5.35;2.22;;;12.30;97.70;;;;;;4975657;28;20500;-53
2023/04/04 12:06:35;;;;;;;7.57;2.95;;;12.30;97.50;;;;;;4974436;28;20094;-50
2023/04/04 12:09:02;;;;;;;4.55;2.10;;;12.30;97.50;;;;;;4974671;28;20039;-52
2023/04/04 12:11:39;;;;;;;5.35;2.58;;;12.30;97.40;;;;;;4973998;28;20482;-52
2023/04/04 12:14:05;;;;;;;5.00;2.30;;;12.50;96.90;;;;;;4985415;28;20070;-53
2023/04/04 12:16:30;;;;;;;6.05;2.53;;;12.60;96.40;;;;;;4980224;28;20088;-54
2023/04/04 12:19:00;;;;;;;5.35;2.20;;;12.80;96.40;;;;;;4974593;28;20562;-51
2023/04/04 12:21:25;;;;;;;5.63;2.13;;;12.90;96.20;;;;;;4979249;28;20051;-54
2023/04/04 12:23:51;;;;;;;4.47;1.90;;;12.90;95.80;;;;;;4973392;28;20390;-53
2023/04/04 12:26:17;;;;;;;6.28;3.03;;;12.90;95.10;;;;;;4974550;28;20045;-51
2023/04/04 12:28:44;;;;;;;6.05;2.10;;;12.80;94.90;;;;;;4974086;28;20039;-54
2023/04/04 12:31:12;;;;;;;4.80;2.05;;;12.60;94.90;;;;;;4973636;28;20397;-54
2023/04/04 12:33:40;;;;;;;4.97;2.10;;;12.50;94.40;;;;;;4985610;28;20371;-53
2023/04/04 12:36:06;;;;;;;5.78;2.10;;;12.40;94.60;;;;;;4974540;28;20043;-54
2023/04/04 12:38:33;;;;;;;6.22;2.20;;;12.50;94.50;;;;;;4973915;28;20382;-53
2023/04/04 12:40:59;;;;;;;6.75;2.30;;;12.60;94.50;;;;;;4973991;28;20038;-51
2023/04/04 12:43:30;;;;;;;4.65;2.50;;;12.70;94.70;;;;;;4956016;28;20085;-55
2023/04/04 12:45:57;;;;;;;4.75;2.17;;;12.80;93.90;;;;;;4976376;28;20043;-54
2023/04/04 12:48:27;;;;;;;4.72;2.05;;;12.90;94.10;;;;;;4974088;28;20039;-54
2023/04/04 12:50:56;;;;;;;4.65;1.88;;;12.90;93.70;;;;;;4978547;28;20490;-54
2023/04/04 12:53:29;;;;;;;5.03;2.17;;;13.00;93.80;;;;;;4982963;28;20035;-52
2023/04/04 12:56:02;;;;;;;6.75;2.17;;;13.20;93.00;;;;;;4957423;28;20054;-55